• Join FlightAware (Why Join?)
  • Login
  • US Flag 
11:43AM EDT


 

Airport Tracker/Info


-or-


 

Live Flight TrackerFlight Track Log ✈ N12SN ✈ 26-Apr-2013 ✈ KBDH - KFNT

Flight Track Log - Related Links

Times and Time Zones

All times are in EDT time to prevent confusion due to time zone crossing. See the N12SN flight status page for this flight to view local times or setup timezone preferences in your user account.

Time Position Orientation Groundspeed Altitude Reporting Facility
EDT Latitude Longitude Course Direction KTS MPH feet Rate Location/Type
06:46AM 45.0936 -95.0397 91° East 151 174 3,100  Level Minneapolis Center
06:47AM 45.0931 -94.9750 91° East 165 190 4,400 1,140 Climbing Minneapolis Center
06:48AM 45.0953 -94.9131 87° East 160 184 5,500 1,020 Climbing Minneapolis Center
06:49AM 45.0983 -94.8475 86° East 165 190 6,500 960 Climbing Minneapolis Center
06:50AM 45.1028 -94.7831 84° East 165 190 7,500 960 Climbing Minneapolis Center
06:51AM 45.1064 -94.7139 86° East 172 198 8,500 720 Climbing Minneapolis Center
06:52AM 45.1119 -94.6431 84° East 177 204 9,000 240 Climbing Minneapolis Center
06:53AM 45.1175 -94.5594 85° East 204 235 9,000  Level Minneapolis Center
06:54AM 45.1214 -94.4747 86° East 215 247 9,000  Level Minneapolis Center
06:55AM 45.1250 -94.3892 87° East 218 251 9,000  Level Minneapolis Center
06:56AM 45.1336 -94.2906 83° East 213 245 9,000  Level Minneapolis Center
06:57AM 45.1367 -94.2047 87° East 216 249 9,100  Climbing Minneapolis Center
06:58AM 45.1375 -94.1194 89° East 219 252 9,100  Level Minneapolis Center
06:59AM 45.1386 -94.0344 89° East 219 252 9,100 -60 Level Minneapolis Center
07:00AM 45.1406 -93.9486 88° East 219 252 9,000 -60 Descending Minneapolis Center
07:01AM 45.1411 -93.8625 89° East 220 253 9,000  Level Minneapolis Center
07:02AM 45.1422 -93.7783 89° East 217 250 9,000  Level Minneapolis Center
07:03AM 45.1433 -93.6928 89° East 217 250 9,000  Level Minneapolis Center
07:04AM 45.1442 -93.6072 89° East 218 251 9,000  Level Minneapolis Center
07:05AM 45.1447 -93.5217 89° East 218 251 9,000  Level Minneapolis Center
07:06AM 45.1456 -93.4358 89° East 219 252 9,000  Level Minneapolis Center
07:07AM 45.1439 -93.3500 92° East 220 253 9,100  Climbing Minneapolis Center
07:08AM 45.1269 -93.2664 106° East 220 253 9,000  Descending Minneapolis Center
07:09AM 45.1128 -93.1833 104° East 217 250 9,100  Climbing Minneapolis Center
07:10AM 45.0969 -93.1008 105° East 217 250 9,000 -60 Descending Minneapolis Center
07:11AM 45.0822 -93.0189 104° East 215 247 9,000  Level Minneapolis Center
07:12AM 45.0678 -92.9375 104° East 214 246 9,100  Climbing Minneapolis Center
07:13AM 45.0533 -92.8561 104° East 214 246 9,000 -120 Descending Minneapolis Center
07:14AM 45.0392 -92.7744 104° East 214 246 8,900 -60 Descending Minneapolis Center
07:15AM 45.0233 -92.6936 105° East 214 246 8,900  Level Minneapolis Center
07:16AM 45.0086 -92.6136 105° East 210 242 8,900  Level Minneapolis Center
07:17AM 44.9906 -92.5169 105° East 212 244 8,900  Level Minneapolis Center
07:18AM 44.9786 -92.4519 105° East 214 246 9,000  Climbing Minneapolis Center
07:19AM 44.9686 -92.3539 98° East 211 243 9,000  Level Minneapolis Center
07:20AM 44.9564 -92.2700 102° East 217 250 9,000  Level Minneapolis Center
07:21AM 44.9422 -92.1719 102° East 214 246 9,000  Level Minneapolis Center
07:22AM 44.9292 -92.0886 102° East 217 250 9,000  Level Minneapolis Center
07:23AM 44.9169 -92.0047 102° East 219 252 9,000  Level Minneapolis Center
07:24AM 44.9056 -91.9242 101° East 213 245 9,000  Level Minneapolis Center
07:25AM 44.8906 -91.8436 105° East 213 245 9,000  Level Minneapolis Center
07:26AM 44.8728 -91.7633 107° East 214 246 9,000  Level Minneapolis Center
07:27AM 44.8572 -91.6817 105° East 215 247 9,000  Level Minneapolis Center
07:28AM 44.8364 -91.5914 108° East 222 255 9,000  Level Minneapolis Center
07:29AM 44.8192 -91.5139 107° East 217 250 9,000  Level Minneapolis Center
07:30AM 44.8019 -91.4267 106° East 222 255 9,000  Level Minneapolis Center
07:31AM 44.7864 -91.3397 104° East 220 253 9,000  Level Minneapolis Center
07:32AM 44.7703 -91.2594 106° East 222 255 9,000  Level Minneapolis Center
07:33AM 44.7544 -91.1728 104° East 219 252 9,000  Level Minneapolis Center
07:34AM 44.7358 -91.0922 108° East 224 258 9,000  Level Minneapolis Center
07:35AM 44.7139 -91.0011 109° East 234 269 9,000  Level Minneapolis Center
07:36AM 44.6922 -90.9131 109° East 231 266 9,000  Level Minneapolis Center
07:37AM 44.6722 -90.8339 110° East 225 259 9,000  Level Minneapolis Center
07:38AM 44.6497 -90.7492 110° East 223 257 9,000  Level Minneapolis Center
07:39AM 44.6303 -90.6725 110° East 217 250 9,000  Level Minneapolis Center
07:41AM 44.6122 -90.5858 106° East 222 255 9,000  Level Minneapolis Center
07:42AM 44.5939 -90.4983 106° East 224 258 9,000  Level Minneapolis Center
07:43AM 44.5772 -90.4147 106° East 228 262 9,000  Level Minneapolis Center
07:44AM 44.5589 -90.3250 106° East 228 262 9,000  Level Minneapolis Center
07:45AM 44.5403 -90.2378 107° East 224 258 9,000  Level Minneapolis Center
07:46AM 44.5239 -90.1575 106° East 223 257 9,000  Level Minneapolis Center
07:47AM 44.5064 -90.0700 106° East 223 257 9,000  Level Minneapolis Center
07:48AM 44.4869 -89.9828 107° East 224 258 9,000  Level Minneapolis Center
07:49AM 44.4739 -89.9167 105° East 220 253 9,000  Level Minneapolis Center
07:50AM 44.4533 -89.8197 107° East 217 250 9,000  Level Minneapolis Center
07:51AM 44.4353 -89.7364 107° East 214 246 9,000  Level Minneapolis Center
07:52AM 44.4194 -89.6578 106° East 218 251 9,000  Level Minneapolis Center
07:53AM 44.4008 -89.5736 107° East 216 249 9,000  Level Minneapolis Center
07:54AM 44.3825 -89.4869 106° East 223 257 9,000  Level Minneapolis Center
07:55AM 44.3611 -89.3894 107° East 218 251 9,000  Level Minneapolis Center
07:56AM 44.3433 -89.3097 107° East 222 255 9,000 -60 Level Minneapolis Center
07:57AM 44.3250 -89.2236 107° East 222 255 8,900 -60 Descending Minneapolis Center
07:58AM 44.3061 -89.1358 107° East 226 260 8,900  Level Minneapolis Center
07:59AM 44.2878 -89.0558 108° East 219 252 9,000  Climbing Minneapolis Center
08:00AM 44.2700 -88.9767 107° East 215 247 9,000  Level Minneapolis Center
08:00AM 44.2639 -88.9517 109° East 213 245 9,000  Level Minneapolis Center
08:02AM 44.2461 -88.8717 107° East 213 245 9,000  Level Minneapolis Center
08:03AM 44.2283 -88.7897 107° East 217 250 9,000  Level Minneapolis Center
08:04AM 44.2075 -88.6931 107° East 221 254 9,000  Level Minneapolis Center
08:05AM 44.1853 -88.5975 108° East 222 255 9,000  Level Minneapolis Center
08:06AM 44.1703 -88.5306 107° East 220 253 9,000  Level Minneapolis Center
08:07AM 44.1489 -88.4333 107° East 222 255 9,000  Level Minneapolis Center
08:08AM 44.1297 -88.3506 108° East 224 258 9,000  Level Minneapolis Center
08:09AM 44.1103 -88.2656 108° East 228 262 9,000  Level Minneapolis Center
08:10AM 44.0908 -88.1828 108° East 226 260 9,000 420 Level Minneapolis Center
08:11AM 44.0706 -88.0894 107° East 218 251 9,900 840 Climbing Minneapolis Center
08:12AM 44.0550 -88.0194 107° East 196 226 10,800 480 Climbing Minneapolis Center
08:13AM 44.0372 -87.9456 108° East 200 230 11,000 60 Climbing Minneapolis Center
08:14AM 44.0189 -87.8633 107° East 215 247 11,000  Level Minneapolis Center
08:15AM 43.9978 -87.7811 110° East 224 258 11,000  Level Minneapolis Center
08:16AM 43.9794 -87.6983 107° East 225 259 11,000  Level Minneapolis Center
08:17AM 43.9603 -87.6158 108° East 225 259 11,000 -60 Level Minneapolis Center
08:18AM 43.9400 -87.5333 109° East 226 260 10,900 -60 Descending Minneapolis Center
08:19AM 43.9175 -87.4364 108° East 227 261 10,900  Level Minneapolis Center
08:20AM 43.8972 -87.3544 109° East 225 259 10,900  Level Minneapolis Center
08:21AM 43.8742 -87.2575 108° East 226 260 10,900  Level Minneapolis Center
08:22AM 43.8539 -87.1725 108° East 227 261 10,900  Level Minneapolis Center
08:23AM 43.8336 -87.0878 108° East 231 266 10,900  Level Minneapolis Center
08:24AM 43.8122 -87.0036 109° East 231 266 10,900  Level Minneapolis Center
08:25AM 43.7919 -86.9178 108° East 235 270 10,900  Level Minneapolis Center
08:27AM 43.7714 -86.8333 109° East 233 268 10,900  Level Minneapolis Center
08:28AM 43.7475 -86.7333 108° East 229 264 10,900  Level Minneapolis Center
08:29AM 43.7275 -86.6506 108° East 227 261 10,900  Level Minneapolis Center
08:30AM 43.7058 -86.5697 110° East 225 259 10,900  Level Minneapolis Center
08:31AM 43.6867 -86.4869 108° East 226 260 11,000  Climbing Minneapolis Center
08:32AM 43.6664 -86.4067 109° East 222 255 11,000  Level Minneapolis Center
08:33AM 43.6456 -86.3228 109° East 229 264 11,000  Level Minneapolis Center
08:34AM 43.6261 -86.2425 108° East 224 258 11,000  Level Minneapolis Center
08:34AM 43.6139 -86.1953 110° East 222 255 11,000  Level Chicago Center
08:35AM 43.5942 -86.1133 108° East 223 257 11,000  Level Chicago Center
08:36AM 43.5728 -86.0325 110° East 224 258 11,000  Level Chicago Center
08:37AM 43.5528 -85.9517 109° East 222 255 11,000  Level Chicago Center
08:38AM 43.5325 -85.8706 109° East 223 257 11,000  Level Chicago Center
08:39AM 43.5197 -85.8219 110° East 222 255 11,000  Level Minneapolis Center
08:40AM 43.4989 -85.7411 110° East 223 257 11,000  Level Minneapolis Center
08:41AM 43.4786 -85.6625 110° East 220 253 11,000  Level Minneapolis Center
08:42AM 43.4578 -85.5825 110° East 221 254 11,000  Level Minneapolis Center
08:43AM 43.4381 -85.5025 109° East 221 254 11,000  Level Minneapolis Center
08:44AM 43.4169 -85.4233 110° East 220 253 11,000  Level Minneapolis Center
08:45AM 43.3844 -85.2978 110° East 218 251 11,000  Level Minneapolis Center
08:46AM 43.3722 -85.2619 115° Southeast 216 249 11,000  Level Cleveland Center
08:47AM 43.3544 -85.1833 107° East 216 249 11,000  Level Cleveland Center